Time;durP1;ratioP1;P1;durP2;ratioP2;P2;SDS_P1;SDS_P2;PMS_P1;PMS_P2;Temp;Humidity;BMP_temperature;BMP_pressure;BME280_temperature;BME280_humidity;BME280_pressure;Samples;Min_cycle;Max_cycle;Signal;HPM_P1;HPM_P2
2021/03/28 00:01:52;;;;;;;35.45;28.60;;;;;;;;;;5034284;28;20701;-73
2021/03/28 00:04:20;;;;;;;37.47;26.40;;;;;;;;;;5034458;28;20650;-73
2021/03/28 00:06:59;;;;;;;29.50;26.90;;;;;;;;;;5034516;28;20189;-73
2021/03/28 00:09:27;;;;;;;30.17;27.65;;;;;;;;;;5034334;28;20247;-73
2021/03/28 00:12:03;;;;;;;28.33;25.92;;;;;;;;;;5034814;28;20246;-73
2021/03/28 00:14:45;;;;;;;32.28;29.40;;;;;;;;;;5034584;28;20193;-73
2021/03/28 00:17:27;;;;;;;30.70;28.00;;;;;;;;;;5034442;28;20668;-73
2021/03/28 00:19:56;;;;;;;31.10;28.27;;;;;;;;;;5016659;28;20239;-72
2021/03/28 00:22:26;;;;;;;29.70;27.60;;;;;;;;;;5034201;28;20214;-73
2021/03/28 00:24:57;;;;;;;29.17;26.73;;;;;;;;;;5034373;28;20224;-73
2021/03/28 00:27:28;;;;;;;28.85;26.65;;;;;;;;;;5034340;28;20526;-73
2021/03/28 00:29:59;;;;;;;28.42;25.70;;;;;;;;;;5034162;28;20192;-73
2021/03/28 00:32:39;;;;;;;28.15;25.55;;;;;;;;;;5034229;28;20202;-73
2021/03/28 00:35:07;;;;;;;27.58;24.60;;;;;;;;;;5034110;28;20636;-73
2021/03/28 00:37:35;;;;;;;27.20;24.90;;;;;;;;;;5032868;28;20205;-73
2021/03/28 00:40:13;;;;;;;26.27;24.15;;;;;;;;;;5034365;28;20190;-73
2021/03/28 00:42:41;;;;;;;94.28;46.38;;;;;;;;;;5034175;28;20220;-73
2021/03/28 00:45:14;;;;;;;27.33;25.20;;;;;;;;;;5035288;28;20226;-73
2021/03/28 00:47:43;;;;;;;26.80;24.50;;;;;;;;;;5039403;28;20190;-73
2021/03/28 00:50:13;;;;;;;27.02;24.83;;;;;;;;;;5042266;28;20204;-73
2021/03/28 00:52:44;;;;;;;29.33;26.42;;;;;;;;;;5035300;28;20193;-72
2021/03/28 00:55:18;;;;;;;25.35;23.27;;;;;;;;;;5034005;28;20189;-73
2021/03/28 00:57:47;;;;;;;27.70;25.40;;;;;;;;;;5035957;28;20189;-73
2021/03/28 01:00:31;;;;;;;27.30;24.85;;;;;;;;;;5036309;28;20753;-73
2021/03/28 01:03:04;;;;;;;27.55;25.23;;;;;;;;;;5036072;28;20233;-75
2021/03/28 01:05:41;;;;;;;29.05;26.42;;;;;;;;;;5035190;28;20193;-75
2021/03/28 01:08:12;;;;;;;28.17;25.83;;;;;;;;;;5035948;28;20666;-75
2021/03/28 01:10:54;;;;;;;35.75;29.33;;;;;;;;;;5035889;28;20193;-73
2021/03/28 01:13:39;;;;;;;30.65;26.50;;;;;;;;;;5036517;28;20195;-73
2021/03/28 01:16:21;;;;;;;27.13;24.60;;;;;;;;;;5036495;28;20568;-75
2021/03/28 01:18:58;;;;;;;26.40;24.05;;;;;;;;;;5034778;28;20233;-75
2021/03/28 01:21:30;;;;;;;26.10;24.05;;;;;;;;;;5034671;28;20202;-73
2021/03/28 01:24:04;;;;;;;24.77;23.05;;;;;;;;;;5035160;28;20198;-75
2021/03/28 01:26:40;;;;;;;23.80;22.00;;;;;;;;;;5035721;28;20194;-76
2021/03/28 01:29:17;;;;;;;24.67;22.58;;;;;;;;;;5035545;28;20200;-73
2021/03/28 01:31:49;;;;;;;25.83;23.77;;;;;;;;;;5034258;28;20563;-74
2021/03/28 01:34:18;;;;;;;28.45;24.85;;;;;;;;;;5033665;28;20643;-73
2021/03/28 01:36:48;;;;;;;26.85;24.23;;;;;;;;;;5033879;28;20194;-73
2021/03/28 01:39:19;;;;;;;25.02;23.13;;;;;;;;;;5033907;28;20201;-73
2021/03/28 01:41:55;;;;;;;24.80;22.85;;;;;;;;;;5034164;28;20675;-73
2021/03/28 01:44:26;;;;;;;25.40;23.10;;;;;;;;;;5033566;28;20195;-76
2021/03/28 01:46:58;;;;;;;26.00;23.50;;;;;;;;;;5033665;28;20230;-75
2021/03/28 01:49:33;;;;;;;25.05;23.15;;;;;;;;;;5033466;28;20690;-76
2021/03/28 01:52:05;;;;;;;24.65;23.05;;;;;;;;;;5037269;28;20286;-75
2021/03/28 01:54:47;;;;;;;24.90;23.00;;;;;;;;;;5037195;28;20225;-75
2021/03/28 01:57:19;;;;;;;25.30;23.20;;;;;;;;;;5037261;28;20201;-73
2021/03/28 01:59:57;;;;;;;25.30;23.30;;;;;;;;;;5036909;28;20654;-73
2021/03/28 02:02:34;;;;;;;24.60;22.48;;;;;;;;;;5037334;28;20218;-75
2021/03/28 02:05:10;;;;;;;26.20;24.00;;;;;;;;;;5037230;28;20189;-76
2021/03/28 02:07:57;;;;;;;24.08;22.13;;;;;;;;;;5037051;28;20193;-73
2021/03/28 02:10:33;;;;;;;27.42;25.52;;;;;;;;;;5033449;28;20256;-75
2021/03/28 02:13:01;;;;;;;24.42;22.42;;;;;;;;;;5037566;28;20193;-75
2021/03/28 02:15:37;;;;;;;24.10;22.48;;;;;;;;;;5037593;28;20280;-75
2021/03/28 02:18:22;;;;;;;24.70;22.55;;;;;;;;;;5036836;28;20239;-76
2021/03/28 02:20:53;;;;;;;24.90;22.40;;;;;;;;;;5038463;28;20202;-73
2021/03/28 02:23:29;;;;;;;24.45;22.50;;;;;;;;;;5037666;28;20255;-75
2021/03/28 02:25:59;;;;;;;24.60;22.80;;;;;;;;;;5036763;28;20186;-76
2021/03/28 02:28:41;;;;;;;25.05;22.73;;;;;;;;;;5037235;28;20208;-75
2021/03/28 02:31:12;;;;;;;25.23;22.90;;;;;;;;;;5036181;28;20202;-76
2021/03/28 02:33:45;;;;;;;25.33;23.55;;;;;;;;;;5038432;28;20190;-75
2021/03/28 02:36:23;;;;;;;24.20;22.30;;;;;;;;;;5036626;28;20198;-76
2021/03/28 02:39:04;;;;;;;27.40;23.20;;;;;;;;;;5039755;28;20287;-74
2021/03/28 02:41:40;;;;;;;29.40;23.95;;;;;;;;;;4994664;28;20206;-73
2021/03/28 02:44:15;;;;;;;24.02;22.33;;;;;;;;;;5039105;28;20204;-75
2021/03/28 02:47:10;;;;;;;23.85;22.10;;;;;;;;;;5043418;28;20221;-75
2021/03/28 02:49:58;;;;;;;37.47;33.90;;;;;;;;;;5042129;28;20190;-75
2021/03/28 02:52:49;;;;;;;24.58;22.73;;;;;;;;;;5039403;28;20194;-74
2021/03/28 02:55:42;;;;;;;23.30;21.45;;;;;;;;;;5026043;28;20227;-75
2021/03/28 02:58:20;;;;;;;23.48;21.65;;;;;;;;;;5005629;28;20214;-76
2021/03/28 03:00:56;;;;;;;22.73;21.08;;;;;;;;;;5038919;28;20614;-75
2021/03/28 03:03:47;;;;;;;24.67;22.33;;;;;;;;;;5039904;28;20261;-75
2021/03/28 03:06:41;;;;;;;24.27;22.77;;;;;;;;;;5040788;28;20247;-76
2021/03/28 03:09:22;;;;;;;23.92;21.77;;;;;;;;;;4980142;28;20203;-74
2021/03/28 03:12:04;;;;;;;25.00;23.00;;;;;;;;;;4978325;28;20203;-75
2021/03/28 03:17:34;;;;;;;24.42;22.50;;;;;;;;;;4980311;28;20204;-74
2021/03/28 03:20:27;;;;;;;22.77;20.95;;;;;;;;;;4985438;28;20215;-75
2021/03/28 03:23:06;;;;;;;26.08;23.50;;;;;;;;;;4964830;28;20263;-75
2021/03/28 03:25:55;;;;;;;23.52;21.88;;;;;;;;;;4960978;28;20211;-75
2021/03/28 03:28:45;;;;;;;24.27;22.10;;;;;;;;;;4977148;28;20192;-75
2021/03/28 03:31:19;;;;;;;23.88;21.65;;;;;;;;;;4977735;28;20234;-75
2021/03/28 03:34:06;;;;;;;24.33;22.63;;;;;;;;;;4983630;28;20199;-75
2021/03/28 03:36:45;;;;;;;22.92;21.17;;;;;;;;;;4978313;28;20199;-75
2021/03/28 03:39:24;;;;;;;23.90;21.90;;;;;;;;;;4977131;28;20203;-75
2021/03/28 03:42:09;;;;;;;22.85;21.25;;;;;;;;;;4977265;28;20221;-75
2021/03/28 03:45:00;;;;;;;22.55;20.95;;;;;;;;;;5002494;28;20255;-74
2021/03/28 03:47:34;;;;;;;23.15;21.45;;;;;;;;;;5036846;28;20206;-75
2021/03/28 03:50:14;;;;;;;23.10;21.23;;;;;;;;;;5037216;28;20204;-75
2021/03/28 03:52:49;;;;;;;23.20;21.25;;;;;;;;;;5038080;28;20189;-75
2021/03/28 03:55:26;;;;;;;23.90;21.77;;;;;;;;;;5036787;28;20196;-75
2021/03/28 03:57:55;;;;;;;23.33;21.38;;;;;;;;;;5036672;28;20198;-75
2021/03/28 04:00:27;;;;;;;22.23;20.67;;;;;;;;;;5036513;28;20198;-75
2021/03/28 04:02:57;;;;;;;24.20;22.40;;;;;;;;;;5035370;28;20222;-75
2021/03/28 04:05:39;;;;;;;25.90;23.23;;;;;;;;;;5037256;28;20701;-73
2021/03/28 04:08:22;;;;;;;24.60;22.33;;;;;;;;;;5033849;28;20680;-73
2021/03/28 04:10:59;;;;;;;23.75;21.98;;;;;;;;;;5036462;28;20194;-75
2021/03/28 04:13:38;;;;;;;23.33;21.45;;;;;;;;;;5036363;28;20189;-74
2021/03/28 04:16:12;;;;;;;23.35;21.95;;;;;;;;;;5036577;28;20293;-75
2021/03/28 04:18:45;;;;;;;23.73;21.63;;;;;;;;;;5039891;28;20589;-73
2021/03/28 04:21:16;;;;;;;23.35;21.30;;;;;;;;;;5036323;28;20639;-73
2021/03/28 04:24:12;;;;;;;23.10;21.15;;;;;;;;;;5036280;28;20240;-76
2021/03/28 04:26:47;;;;;;;58.85;53.58;;;;;;;;;;5033847;28;20189;-73
2021/03/28 04:29:15;;;;;;;25.90;23.77;;;;;;;;;;5033818;28;20205;-73
2021/03/28 04:31:56;;;;;;;21.95;20.60;;;;;;;;;;5034139;28;20281;-73
2021/03/28 04:34:26;;;;;;;23.25;21.55;;;;;;;;;;5034643;28;20289;-73
2021/03/28 04:37:07;;;;;;;24.58;22.67;;;;;;;;;;5033728;28;20197;-73
2021/03/28 04:39:47;;;;;;;23.55;21.85;;;;;;;;;;5033847;28;20201;-73
2021/03/28 04:42:32;;;;;;;23.48;21.65;;;;;;;;;;5033717;28;20217;-73
2021/03/28 04:45:32;;;;;;;24.08;22.20;;;;;;;;;;5033546;28;20275;-73
2021/03/28 04:48:10;;;;;;;22.92;21.33;;;;;;;;;;5033590;28;20194;-73
2021/03/28 04:51:02;;;;;;;25.25;23.30;;;;;;;;;;5033918;28;20522;-74
2021/03/28 04:53:44;;;;;;;24.25;22.25;;;;;;;;;;5034333;28;20185;-73
2021/03/28 04:56:40;;;;;;;23.15;21.25;;;;;;;;;;5033806;28;20196;-73
2021/03/28 04:59:38;;;;;;;23.38;21.67;;;;;;;;;;5033788;28;20292;-73
2021/03/28 05:02:10;;;;;;;23.75;21.95;;;;;;;;;;5033764;28;20229;-73
2021/03/28 05:04:42;;;;;;;23.10;21.40;;;;;;;;;;5033714;28;20196;-73
2021/03/28 05:07:28;;;;;;;23.30;21.70;;;;;;;;;;5033745;28;20544;-73
2021/03/28 05:10:12;;;;;;;23.73;21.98;;;;;;;;;;5032271;28;20559;-73
2021/03/28 05:12:56;;;;;;;24.65;22.95;;;;;;;;;;5033645;28;20205;-74
2021/03/28 05:15:32;;;;;;;23.80;21.65;;;;;;;;;;5033498;28;20200;-73
2021/03/28 05:18:18;;;;;;;23.52;21.48;;;;;;;;;;5032133;28;20701;-73
2021/03/28 05:20:58;;;;;;;23.75;21.67;;;;;;;;;;5033257;28;20554;-73
2021/03/28 05:23:38;;;;;;;24.33;22.10;;;;;;;;;;5033268;28;20223;-73
2021/03/28 05:26:16;;;;;;;23.65;21.75;;;;;;;;;;5036001;28;20605;-74
2021/03/28 05:29:01;;;;;;;23.25;21.15;;;;;;;;;;5037042;28;20198;-73
2021/03/28 05:31:46;;;;;;;22.92;21.08;;;;;;;;;;5037026;28;20194;-74
2021/03/28 05:34:31;;;;;;;23.77;21.88;;;;;;;;;;5036979;28;20193;-73
2021/03/28 05:37:22;;;;;;;24.13;22.08;;;;;;;;;;4997891;28;20233;-73
2021/03/28 05:40:15;;;;;;;24.00;21.90;;;;;;;;;;5037052;28;20191;-73
2021/03/28 05:43:00;;;;;;;22.80;20.55;;;;;;;;;;5036964;28;20329;-73
2021/03/28 05:45:39;;;;;;;24.10;21.67;;;;;;;;;;5027197;28;20329;-71
2021/03/28 05:48:23;;;;;;;23.30;21.42;;;;;;;;;;5036665;28;20197;-72
2021/03/28 05:50:55;;;;;;;22.50;20.75;;;;;;;;;;5037017;28;20211;-73
2021/03/28 05:53:47;;;;;;;23.63;21.10;;;;;;;;;;5036984;28;20524;-74
2021/03/28 05:56:32;;;;;;;23.00;21.05;;;;;;;;;;5036635;28;20200;-73
2021/03/28 05:59:24;;;;;;;22.60;20.77;;;;;;;;;;5036509;28;20221;-72
2021/03/28 06:02:02;;;;;;;24.50;22.10;;;;;;;;;;5036264;28;20195;-72
2021/03/28 06:04:50;;;;;;;22.58;20.77;;;;;;;;;;5036807;28;20193;-73
2021/03/28 06:07:55;;;;;;;23.00;21.20;;;;;;;;;;5037769;28;20197;-73
2021/03/28 06:10:43;;;;;;;24.27;22.30;;;;;;;;;;5040548;28;20202;-71
2021/03/28 06:13:27;;;;;;;22.52;20.52;;;;;;;;;;5037030;28;20198;-71
2021/03/28 06:16:08;;;;;;;22.08;20.05;;;;;;;;;;5036196;28;20201;-71
2021/03/28 06:18:53;;;;;;;22.50;20.70;;;;;;;;;;5036095;28;20238;-71
2021/03/28 06:21:27;;;;;;;23.65;21.58;;;;;;;;;;5036471;28;20251;-70
2021/03/28 06:24:14;;;;;;;23.58;22.00;;;;;;;;;;5035938;28;20253;-71
2021/03/28 06:27:14;;;;;;;22.38;20.95;;;;;;;;;;5034998;28;20197;-70
2021/03/28 06:29:56;;;;;;;23.55;21.40;;;;;;;;;;5035892;28;20195;-70
2021/03/28 06:32:50;;;;;;;23.92;21.95;;;;;;;;;;5036125;28;20301;-70
2021/03/28 06:35:26;;;;;;;22.15;20.55;;;;;;;;;;4974951;28;20304;-70
2021/03/28 06:38:08;;;;;;;22.52;20.52;;;;;;;;;;4975310;28;20707;-71
2021/03/28 06:40:59;;;;;;;23.25;21.10;;;;;;;;;;4975110;28;20668;-71
2021/03/28 06:43:59;;;;;;;23.02;21.20;;;;;;;;;;4936429;29;20241;-70
2021/03/28 06:46:41;;;;;;;23.15;20.85;;;;;;;;;;4936089;29;20686;-70
2021/03/28 06:49:35;;;;;;;22.30;20.80;;;;;;;;;;4936398;29;20229;-70
2021/03/28 06:52:10;;;;;;;22.52;20.75;;;;;;;;;;4899236;29;20258;-70
2021/03/28 06:54:55;;;;;;;22.13;20.48;;;;;;;;;;4898564;29;20298;-70
2021/03/28 06:57:45;;;;;;;22.20;20.80;;;;;;;;;;4898350;29;20203;-70
2021/03/28 07:00:45;;;;;;;22.77;21.17;;;;;;;;;;4898357;29;20251;-70
2021/03/28 07:03:33;;;;;;;22.83;21.42;;;;;;;;;;4898253;29;20218;-70
2021/03/28 07:06:02;;;;;;;22.45;20.95;;;;;;;;;;4898052;29;20203;-70
2021/03/28 07:08:46;;;;;;;22.58;20.80;;;;;;;;;;4898092;29;20213;-70
2021/03/28 07:11:28;;;;;;;23.08;21.52;;;;;;;;;;4921181;29;20284;-70
2021/03/28 07:14:13;;;;;;;24.27;22.50;;;;;;;;;;4921594;29;20713;-70
2021/03/28 07:16:51;;;;;;;23.63;22.00;;;;;;;;;;4936386;29;20193;-71
2021/03/28 07:19:35;;;;;;;23.17;21.67;;;;;;;;;;4945743;28;20702;-71
2021/03/28 07:22:13;;;;;;;23.15;21.27;;;;;;;;;;4974828;28;20220;-71
2021/03/28 07:25:05;;;;;;;23.05;21.33;;;;;;;;;;4974404;28;20248;-71
2021/03/28 07:27:53;;;;;;;22.00;20.60;;;;;;;;;;5000251;28;20290;-71
2021/03/28 07:30:34;;;;;;;22.55;21.05;;;;;;;;;;5035352;28;20550;-71
2021/03/28 07:33:11;;;;;;;22.60;21.08;;;;;;;;;;5033524;28;20201;-71
2021/03/28 07:35:48;;;;;;;22.40;21.08;;;;;;;;;;5035186;28;20191;-71
2021/03/28 07:38:32;;;;;;;22.17;20.55;;;;;;;;;;5034868;28;20662;-71
2021/03/28 07:41:17;;;;;;;23.00;21.03;;;;;;;;;;4955133;29;20317;-70
2021/03/28 07:44:09;;;;;;;21.80;20.40;;;;;;;;;;4955278;29;20519;-70
2021/03/28 07:46:45;;;;;;;23.67;21.90;;;;;;;;;;4955657;29;20238;-71
2021/03/28 07:49:25;;;;;;;22.80;21.20;;;;;;;;;;4954254;29;20535;-71
2021/03/28 07:52:02;;;;;;;22.95;21.55;;;;;;;;;;4954999;29;20291;-70
2021/03/28 07:54:45;;;;;;;22.40;20.60;;;;;;;;;;4954639;29;20199;-74
2021/03/28 07:57:29;;;;;;;22.65;21.02;;;;;;;;;;4954694;29;20437;-73
2021/03/28 08:00:03;;;;;;;21.57;20.20;;;;;;;;;;4954665;29;20192;-71
2021/03/28 08:02:46;;;;;;;24.50;22.60;;;;;;;;;;4954383;29;21000;-71
2021/03/28 08:05:20;;;;;;;22.55;20.77;;;;;;;;;;4954125;29;20432;-71
2021/03/28 08:07:50;;;;;;;23.23;21.40;;;;;;;;;;4954426;29;20199;-71
2021/03/28 08:10:38;;;;;;;22.23;20.73;;;;;;;;;;4954354;29;20896;-70
2021/03/28 08:13:22;;;;;;;22.93;21.13;;;;;;;;;;4954616;29;20233;-71
2021/03/28 08:16:05;;;;;;;23.15;21.75;;;;;;;;;;4953892;29;20454;-70
2021/03/28 08:18:40;;;;;;;22.17;20.57;;;;;;;;;;5009211;28;20713;-71
2021/03/28 08:21:17;;;;;;;23.20;21.40;;;;;;;;;;5034177;28;20525;-71
2021/03/28 08:23:58;;;;;;;23.40;21.60;;;;;;;;;;5033717;28;20486;-71
2021/03/28 08:26:38;;;;;;;23.30;21.63;;;;;;;;;;5032644;28;20450;-71
2021/03/28 08:29:21;;;;;;;21.90;20.27;;;;;;;;;;5033682;28;20244;-71
2021/03/28 08:31:52;;;;;;;22.05;20.10;;;;;;;;;;5033749;28;20196;-71
2021/03/28 08:34:46;;;;;;;21.70;20.50;;;;;;;;;;5034050;28;20602;-71
2021/03/28 08:37:34;;;;;;;23.42;21.65;;;;;;;;;;5033955;28;20200;-70
2021/03/28 08:40:29;;;;;;;22.67;20.75;;;;;;;;;;5033927;28;20199;-71
2021/03/28 08:43:07;;;;;;;23.67;22.00;;;;;;;;;;5033711;28;20247;-70
2021/03/28 08:45:35;;;;;;;22.47;20.97;;;;;;;;;;5034106;28;20792;-71
2021/03/28 08:48:11;;;;;;;23.00;21.08;;;;;;;;;;5033959;28;20441;-71
2021/03/28 08:50:42;;;;;;;22.97;21.23;;;;;;;;;;5033887;28;20697;-71
2021/03/28 08:53:36;;;;;;;23.67;22.17;;;;;;;;;;5033981;28;20433;-71
2021/03/28 08:56:21;;;;;;;21.90;20.20;;;;;;;;;;5033571;28;20447;-71
2021/03/28 08:58:53;;;;;;;22.20;20.65;;;;;;;;;;5034569;28;20531;-70
2021/03/28 09:01:24;;;;;;;23.43;21.40;;;;;;;;;;5038001;28;20185;-71
2021/03/28 09:03:57;;;;;;;23.95;22.00;;;;;;;;;;5038188;28;20929;-71
2021/03/28 09:06:38;;;;;;;22.05;20.48;;;;;;;;;;5037733;28;20196;-71
2021/03/28 09:09:07;;;;;;;21.42;19.83;;;;;;;;;;5035506;28;20207;-71
2021/03/28 09:11:50;;;;;;;22.50;20.63;;;;;;;;;;5038056;28;20188;-71
2021/03/28 09:14:33;;;;;;;20.60;19.30;;;;;;;;;;5038084;28;20421;-71
2021/03/28 09:17:04;;;;;;;23.17;21.37;;;;;;;;;;5037633;28;20469;-70
2021/03/28 09:19:50;;;;;;;21.83;20.10;;;;;;;;;;5036863;28;20452;-70
2021/03/28 09:22:20;;;;;;;22.13;20.57;;;;;;;;;;5037866;28;20417;-70
2021/03/28 09:24:50;;;;;;;22.97;21.40;;;;;;;;;;5037618;28;20426;-70
2021/03/28 09:27:33;;;;;;;22.53;21.07;;;;;;;;;;5037041;28;20488;-70
2021/03/28 09:30:12;;;;;;;22.20;20.70;;;;;;;;;;5036993;28;20922;-70
2021/03/28 09:32:46;;;;;;;20.40;19.20;;;;;;;;;;5037024;28;20459;-70
2021/03/28 09:35:20;;;;;;;22.47;20.53;;;;;;;;;;5036982;28;20441;-70
2021/03/28 09:37:52;;;;;;;22.13;20.30;;;;;;;;;;5037232;28;20413;-70
2021/03/28 09:40:26;;;;;;;22.13;20.57;;;;;;;;;;5037066;28;20904;-70
2021/03/28 09:43:08;;;;;;;22.33;20.73;;;;;;;;;;5037111;28;20454;-70
2021/03/28 09:45:52;;;;;;;21.37;19.97;;;;;;;;;;5037152;28;20505;-70
2021/03/28 09:48:37;;;;;;;22.20;20.80;;;;;;;;;;5037047;28;20417;-70
2021/03/28 09:51:07;;;;;;;23.63;21.70;;;;;;;;;;5036932;28;20620;-70
2021/03/28 09:53:41;;;;;;;22.33;20.70;;;;;;;;;;5036658;28;20410;-70
2021/03/28 09:56:25;;;;;;;21.03;19.73;;;;;;;;;;5036437;28;20442;-70
2021/03/28 09:59:03;;;;;;;21.37;20.07;;;;;;;;;;5036774;28;20439;-71
2021/03/28 10:01:43;;;;;;;22.83;21.10;;;;;;;;;;5036515;28;20461;-70
2021/03/28 10:04:17;;;;;;;21.63;19.77;;;;;;;;;;5036344;28;20507;-70
2021/03/28 10:06:44;;;;;;;21.63;19.93;;;;;;;;;;5036491;28;20917;-70
2021/03/28 10:09:15;;;;;;;22.50;20.80;;;;;;;;;;5036451;28;20414;-70
2021/03/28 10:11:47;;;;;;;22.80;21.20;;;;;;;;;;5036003;28;20417;-70
2021/03/28 10:14:23;;;;;;;22.10;20.50;;;;;;;;;;5036430;28;20427;-70
2021/03/28 10:16:56;;;;;;;22.47;20.77;;;;;;;;;;5036354;28;20439;-70
2021/03/28 10:19:25;;;;;;;23.17;21.47;;;;;;;;;;5036693;28;20821;-70
2021/03/28 10:22:07;;;;;;;23.50;21.53;;;;;;;;;;5036206;28;20439;-70
2021/03/28 10:24:52;;;;;;;21.93;20.33;;;;;;;;;;5020108;28;20521;-70
2021/03/28 10:27:37;;;;;;;21.73;20.33;;;;;;;;;;5026534;28;20433;-71
2021/03/28 10:30:12;;;;;;;21.30;20.00;;;;;;;;;;5036473;28;20817;-71
2021/03/28 10:32:49;;;;;;;22.17;20.57;;;;;;;;;;5036598;28;20796;-71
2021/03/28 10:35:36;;;;;;;22.17;20.20;;;;;;;;;;5036392;28;20418;-71
2021/03/28 10:38:18;;;;;;;64.77;42.70;;;;;;;;;;4956243;29;20817;-71
2021/03/28 10:40:47;;;;;;;306.88;215.27;;;;;;;;;;4925691;29;20428;-71
2021/03/28 10:43:19;;;;;;;23.00;21.20;;;;;;;;;;4956519;29;20234;-71
2021/03/28 10:46:02;;;;;;;22.27;20.67;;;;;;;;;;4955208;29;20450;-71
2021/03/28 10:48:43;;;;;;;25.23;23.03;;;;;;;;;;4955478;29;20433;-71
2021/03/28 10:51:27;;;;;;;48.28;42.08;;;;;;;;;;4943895;29;20436;-71
2021/03/28 10:54:05;;;;;;;26.27;23.87;;;;;;;;;;4955713;29;20223;-71
2021/03/28 10:56:41;;;;;;;28.27;25.70;;;;;;;;;;4955248;29;20424;-71
2021/03/28 10:59:28;;;;;;;23.13;21.53;;;;;;;;;;4939551;29;20413;-70
2021/03/28 11:02:12;;;;;;;22.30;20.80;;;;;;;;;;4955285;29;20936;-71
2021/03/28 11:04:54;;;;;;;27.93;25.33;;;;;;;;;;4955288;29;20443;-71
2021/03/28 11:07:39;;;;;;;24.13;21.83;;;;;;;;;;4939191;29;20513;-71
2021/03/28 11:10:28;;;;;;;23.50;21.70;;;;;;;;;;4954931;29;20458;-71
2021/03/28 11:13:11;;;;;;;24.20;22.50;;;;;;;;;;4955030;29;20992;-71
2021/03/28 11:15:44;;;;;;;21.70;20.40;;;;;;;;;;5017792;28;20425;-71
2021/03/28 11:18:41;;;;;;;21.97;20.60;;;;;;;;;;5035250;28;20457;-71
2021/03/28 11:21:10;;;;;;;21.20;19.80;;;;;;;;;;5035430;28;20439;-71
2021/03/28 11:23:45;;;;;;;22.57;21.10;;;;;;;;;;5034021;28;20502;-70
2021/03/28 11:26:36;;;;;;;21.80;20.40;;;;;;;;;;5035001;28;20445;-71
2021/03/28 11:29:18;;;;;;;22.67;21.07;;;;;;;;;;5020302;28;20433;-70
2021/03/28 11:31:57;;;;;;;23.27;21.20;;;;;;;;;;5035051;28;20478;-71
2021/03/28 11:34:27;;;;;;;22.10;20.50;;;;;;;;;;5034790;28;20442;-71
2021/03/28 11:36:56;;;;;;;22.13;20.37;;;;;;;;;;5034647;28;20418;-70
2021/03/28 11:39:25;;;;;;;22.03;20.53;;;;;;;;;;5035052;28;20410;-70
2021/03/28 11:42:01;;;;;;;22.43;21.10;;;;;;;;;;5035124;28;20419;-70
2021/03/28 11:44:36;;;;;;;23.43;22.03;;;;;;;;;;5034421;28;20461;-70
2021/03/28 11:47:21;;;;;;;24.27;22.43;;;;;;;;;;5034397;28;20795;-70
2021/03/28 11:49:54;;;;;;;22.60;21.00;;;;;;;;;;5035590;28;20786;-70
2021/03/28 11:52:23;;;;;;;23.23;21.50;;;;;;;;;;5034671;28;20431;-70
2021/03/28 11:55:03;;;;;;;23.50;21.80;;;;;;;;;;5034395;28;20413;-70
2021/03/28 11:57:31;;;;;;;24.50;22.70;;;;;;;;;;5034443;28;20450;-70
2021/03/28 12:00:12;;;;;;;23.03;21.40;;;;;;;;;;5033034;28;20439;-70
2021/03/28 12:02:39;;;;;;;22.20;20.70;;;;;;;;;;5034113;28;20468;-70
2021/03/28 12:05:25;;;;;;;24.17;22.47;;;;;;;;;;5034182;28;20425;-71
2021/03/28 12:08:04;;;;;;;24.37;22.73;;;;;;;;;;5034884;28;20780;-70
2021/03/28 12:10:34;;;;;;;23.50;22.00;;;;;;;;;;5034362;28;20439;-70
2021/03/28 12:13:07;;;;;;;24.10;22.70;;;;;;;;;;5034038;28;20437;-70
2021/03/28 12:15:52;;;;;;;22.97;21.47;;;;;;;;;;5034261;28;20436;-70
2021/03/28 12:18:33;;;;;;;23.53;22.03;;;;;;;;;;5033583;28;20491;-70
2021/03/28 12:21:18;;;;;;;23.23;21.63;;;;;;;;;;5033874;28;20422;-70
2021/03/28 12:23:57;;;;;;;22.93;21.50;;;;;;;;;;5033833;28;20454;-69
2021/03/28 12:26:26;;;;;;;24.37;22.83;;;;;;;;;;5033723;28;20772;-71
2021/03/28 12:28:56;;;;;;;23.87;22.17;;;;;;;;;;5033776;28;20411;-70
2021/03/28 12:31:36;;;;;;;24.37;22.67;;;;;;;;;;5033580;28;20422;-70
2021/03/28 12:34:18;;;;;;;24.43;22.80;;;;;;;;;;5033532;28;20422;-69
2021/03/28 12:36:58;;;;;;;23.63;22.00;;;;;;;;;;5031633;28;20629;-71
2021/03/28 12:39:27;;;;;;;26.00;24.20;;;;;;;;;;5033855;28;20414;-69
2021/03/28 12:42:21;;;;;;;24.67;23.03;;;;;;;;;;5045154;28;20428;-70
2021/03/28 12:44:50;;;;;;;24.10;22.40;;;;;;;;;;4985466;28;20536;-70
2021/03/28 12:47:29;;;;;;;25.00;23.00;;;;;;;;;;4991987;28;20407;-71
2021/03/28 12:49:58;;;;;;;24.33;22.83;;;;;;;;;;4991506;28;20449;-70
2021/03/28 12:52:27;;;;;;;25.50;23.67;;;;;;;;;;4992164;28;20415;-70
2021/03/28 12:55:09;;;;;;;24.30;22.90;;;;;;;;;;4992114;28;20424;-70
2021/03/28 12:57:37;;;;;;;24.23;22.73;;;;;;;;;;4991941;28;20404;-71
2021/03/28 13:00:15;;;;;;;24.00;22.37;;;;;;;;;;4992157;28;20433;-70
2021/03/28 13:02:42;;;;;;;23.67;22.07;;;;;;;;;;4991877;28;20443;-71
2021/03/28 13:05:18;;;;;;;24.80;23.13;;;;;;;;;;4992143;28;20412;-72
2021/03/28 13:07:46;;;;;;;24.70;22.90;;;;;;;;;;4992058;28;20444;-71
2021/03/28 13:10:20;;;;;;;23.90;22.30;;;;;;;;;;4992402;28;20408;-78
2021/03/28 13:12:53;;;;;;;23.77;22.37;;;;;;;;;;4992856;28;20419;-70
2021/03/28 13:15:23;;;;;;;25.23;23.73;;;;;;;;;;4992034;28;20500;-71
2021/03/28 13:18:03;;;;;;;27.03;25.07;;;;;;;;;;4991671;28;20412;-71
2021/03/28 13:20:33;;;;;;;25.73;23.90;;;;;;;;;;5023560;28;20425;-71
2021/03/28 13:23:16;;;;;;;25.27;23.57;;;;;;;;;;5052395;28;20491;-71
2021/03/28 13:25:44;;;;;;;25.73;24.03;;;;;;;;;;5053851;28;20450;-72
2021/03/28 13:28:28;;;;;;;24.17;22.67;;;;;;;;;;5053612;28;20455;-72
2021/03/28 13:31:13;;;;;;;25.10;23.50;;;;;;;;;;5054270;28;20441;-72
2021/03/28 13:33:41;;;;;;;25.30;23.63;;;;;;;;;;5053360;28;20417;-71
2021/03/28 13:36:20;;;;;;;25.97;23.77;;;;;;;;;;5054021;28;20443;-71
2021/03/28 13:39:00;;;;;;;23.90;22.10;;;;;;;;;;5053565;28;20536;-72
2021/03/28 13:41:29;;;;;;;25.37;23.70;;;;;;;;;;5054045;28;20425;-71
2021/03/28 13:44:03;;;;;;;26.87;25.07;;;;;;;;;;5053431;28;20490;-72
2021/03/28 13:46:31;;;;;;;24.57;22.63;;;;;;;;;;5055715;28;20424;-72
2021/03/28 13:49:02;;;;;;;25.70;23.90;;;;;;;;;;5056882;28;20454;-71
2021/03/28 13:51:31;;;;;;;25.80;24.00;;;;;;;;;;5056241;28;20413;-72
2021/03/28 13:54:03;;;;;;;25.97;24.00;;;;;;;;;;5056899;28;20472;-72
2021/03/28 13:56:48;;;;;;;25.33;23.73;;;;;;;;;;5057133;28;20453;-71
2021/03/28 13:59:21;;;;;;;26.83;25.10;;;;;;;;;;5057673;28;20438;-72
2021/03/28 14:02:04;;;;;;;26.33;24.30;;;;;;;;;;5058270;28;20438;-72
2021/03/28 14:04:41;;;;;;;24.97;23.03;;;;;;;;;;5056535;28;20494;-72
2021/03/28 14:07:19;;;;;;;27.30;24.93;;;;;;;;;;5057007;28;20438;-72
2021/03/28 14:09:49;;;;;;;26.27;24.60;;;;;;;;;;5056757;28;20526;-71
2021/03/28 14:12:23;;;;;;;26.10;24.20;;;;;;;;;;5056751;28;20439;-72
2021/03/28 14:15:02;;;;;;;26.30;24.30;;;;;;;;;;5056464;28;20452;-71
2021/03/28 14:17:31;;;;;;;26.13;24.33;;;;;;;;;;5057123;28;20416;-72
2021/03/28 14:20:10;;;;;;;25.80;24.27;;;;;;;;;;5056784;28;20478;-72
2021/03/28 14:22:39;;;;;;;26.50;24.70;;;;;;;;;;5056306;28;20863;-72
2021/03/28 14:25:08;;;;;;;26.00;24.20;;;;;;;;;;5055988;28;20519;-72
2021/03/28 14:27:37;;;;;;;25.83;24.13;;;;;;;;;;5056473;28;20434;-72
2021/03/28 14:30:13;;;;;;;26.20;24.10;;;;;;;;;;5056530;28;20431;-71
2021/03/28 14:32:43;;;;;;;26.70;24.67;;;;;;;;;;5056507;28;20424;-72
2021/03/28 14:35:21;;;;;;;24.90;22.93;;;;;;;;;;5057172;28;20410;-72
2021/03/28 14:38:07;;;;;;;27.33;25.53;;;;;;;;;;5056251;28;20409;-72
2021/03/28 14:40:51;;;;;;;26.33;24.43;;;;;;;;;;5056266;28;20434;-72
2021/03/28 14:43:41;;;;;;;25.20;23.50;;;;;;;;;;5057789;28;20485;-72
2021/03/28 14:46:19;;;;;;;25.70;24.00;;;;;;;;;;4994330;28;20496;-71
2021/03/28 14:48:50;;;;;;;25.17;23.33;;;;;;;;;;4989001;28;20445;-71
2021/03/28 14:51:24;;;;;;;25.40;23.60;;;;;;;;;;4994499;28;20420;-71
2021/03/28 14:53:55;;;;;;;26.47;24.60;;;;;;;;;;4994300;28;20924;-75
2021/03/28 14:56:33;;;;;;;25.20;23.20;;;;;;;;;;4993942;28;20446;-71
2021/03/28 14:59:21;;;;;;;26.00;24.20;;;;;;;;;;4994189;28;20441;-71
2021/03/28 15:01:53;;;;;;;25.97;24.27;;;;;;;;;;4995524;28;20462;-71
2021/03/28 15:04:38;;;;;;;28.37;25.63;;;;;;;;;;4994303;28;20464;-72
2021/03/28 15:07:24;;;;;;;27.70;25.80;;;;;;;;;;4994032;28;20452;-71
2021/03/28 15:09:55;;;;;;;27.47;25.50;;;;;;;;;;4985108;28;20514;-71
2021/03/28 15:12:25;;;;;;;27.30;25.47;;;;;;;;;;4977933;28;20544;-72
2021/03/28 15:14:55;;;;;;;27.07;24.90;;;;;;;;;;4993834;28;20438;-72
2021/03/28 15:17:31;;;;;;;26.80;24.90;;;;;;;;;;4994414;28;20445;-71
2021/03/28 15:20:02;;;;;;;25.20;23.03;;;;;;;;;;4993580;28;20488;-76
2021/03/28 15:22:32;;;;;;;25.87;24.27;;;;;;;;;;5021067;28;20414;-78
2021/03/28 15:25:02;;;;;;;27.13;24.90;;;;;;;;;;5055227;28;20426;-72